Latest Weather Observations for Cape Jaffa

IDS60801

Issued at 11:31 am CST Sunday 29 May 2016 (issued every 30 minutes, with the page automatically refreshed every 10 minutes)

About weather observations | Map of weather stations | Latest weather observations for SA | Other Formats
Station Details ID: 026095 Name: THE LIMESTONE Lat: -36.97 Lon: 139.72 Height: 17.0 m
Data from the previous 72 hours. | See also: Recent months at Cape Jaffa
Date/Time
CST
Temp
°C
App
Temp
°C
Dew
Point
Rel
Hum
%
Delta-T
°C
Wind Press
QNH
hPa
Press
MSL
hPa
Rain
since 9 am
mm
Dir
 
Spd
km/h
Gust
km/h
Spd
kts
Gust
kts
29/11:30am 12.2 7.3 4.9 61 3.3 NE 20 24 11 13 1020.5 1020.5 0.0
29/11:00am 11.8 6.4 4.3 60 3.4 ENE 22 26 12 14 1020.7 1020.7 0.0
29/10:30am 11.2 5.3 4.0 61 3.2 ENE 24 30 13 16 1020.8 1020.8 0.0
29/10:00am 10.9 5.0 4.1 63 3.0 ENE 24 28 13 15 1020.9 1020.9 0.0
29/09:30am 10.6 5.2 4.5 66 2.7 ENE 22 30 12 16 1021.1 1021.1 0.0
29/09:00am 9.9 5.1 4.9 71 2.2 ENE 19 24 10 13 1021.0 1021.0 0.0
29/08:30am 8.5 4.0 4.3 75 1.8 ENE 17 20 9 11 1020.8 1020.8 0.0
29/08:00am 7.5 3.0 4.1 79 1.5 ENE 17 19 9 10 1020.4 1020.4 0.0
29/07:30am 7.0 2.8 4.0 81 1.3 E 15 19 8 10 1020.3 1020.3 0.0
29/07:00am 7.2 2.7 4.3 82 1.3 E 17 20 9 11 1020.0 1020.0 0.0
29/06:30am 7.7 4.9 5.0 83 1.2 NE 9 11 5 6 1020.0 1020.0 0.0
29/06:00am 7.9 4.7 5.2 83 1.2 NE 11 13 6 7 1019.8 1019.8 0.0
29/05:30am 7.9 5.2 5.4 84 1.1 NE 9 11 5 6 1019.5 1019.5 0.0
29/05:00am 8.1 5.7 5.4 83 1.2 NE 7 7 4 4 1019.3 1019.3 0.0
29/04:30am 8.4 5.7 5.7 83 1.2 NE 9 9 5 5 1019.2 1019.2 0.0
29/04:00am 8.3 6.2 5.6 83 1.2 NNE 6 7 3 4 1019.1 1019.1 0.0
29/03:30am 8.6 6.0 5.9 83 1.2 NE 9 9 5 5 1019.1 1019.1 0.0
29/03:00am 8.8 6.7 5.9 82 1.3 NE 6 7 3 4 1019.1 1019.1 0.0
29/02:30am 9.2 6.9 5.6 78 1.6 ENE 7 9 4 5 1019.2 1019.2 0.0
29/02:00am 9.2 7.5 5.8 79 1.6 NE 4 4 2 2 1019.2 1019.2 0.0
29/01:30am 9.4 7.6 5.6 77 1.7 ENE 4 6 2 3 1019.3 1019.3 0.0
29/01:00am 9.4 7.3 5.8 78 1.6 NE 6 7 3 4 1019.3 1019.3 0.0
29/12:30am 9.6 7.9 6.0 78 1.7 ENE 4 6 2 3 1019.3 1019.3 0.0
29/12:00am 9.6 7.5 5.8 77 1.7 ENE 6 7 3 4 1019.5 1019.5 0.0
 
Date/Time
CST
Temp
°C
App
Temp
°C
Dew
Point
Rel
Hum
%
Delta-T
°C
Wind Press
QNH
hPa
Press
MSL
hPa
Rain
since 9 am
mm
Dir
 
Spd
km/h
Gust
km/h
Spd
kts
Gust
kts
28/11:30pm 9.8 8.1 6.0 77 1.7 NNE 4 6 2 3 1019.6 1019.6 0.0
28/11:00pm 10.4 8.3 5.6 72 2.2 E 6 6 3 3 1019.5 1019.5 0.0
28/10:30pm 10.6 8.3 4.7 67 2.6 ESE 6 7 3 4 1019.5 1019.5 0.0
28/10:00pm 10.8 8.4 4.5 65 2.8 ESE 6 7 3 4 1019.4 1019.4 0.0
28/09:30pm 10.6 8.6 4.5 66 2.7 E 4 4 2 2 1019.5 1019.5 0.0
28/09:00pm 10.7 8.8 4.8 67 2.7 E 4 6 2 3 1019.3 1019.3 0.0
28/08:30pm 10.5 9.0 5.1 69 2.4 ESE 2 2 1 1 1019.1 1019.1 0.0
28/08:00pm 10.6 9.0 4.7 67 2.7 SE 2 4 1 2 1019.1 1019.1 0.0
28/07:30pm 10.8 8.5 4.9 67 2.7 ESE 6 7 3 4 1019.0 1019.0 0.0
28/07:00pm 11.1 8.6 5.0 66 2.8 SE 7 9 4 5 1018.7 1018.7 0.0
28/06:30pm 11.3 8.4 4.7 64 3.0 SSE 9 13 5 7 1018.5 1018.5 0.0
28/06:00pm 11.2 8.9 5.7 69 2.5 S 7 13 4 7 1018.3 1018.3 0.0
28/05:30pm 11.7 8.0 4.4 61 3.3 SW 13 17 7 9 1018.1 1018.1 0.0
28/05:00pm 11.5 8.8 5.4 66 2.8 SSE 9 13 5 7 1017.8 1017.8 0.0
28/04:30pm 11.9 7.8 4.6 61 3.3 S 15 20 8 11 1017.7 1017.7 0.0
28/04:00pm 12.6 9.1 5.5 62 3.3 SSW 13 20 7 11 1017.4 1017.4 0.0
28/03:30pm 12.9 8.5 4.8 58 3.7 SSW 17 24 9 13 1017.2 1017.2 0.0
28/03:00pm 13.8 8.2 5.2 56 4.0 SSW 24 30 13 16 1016.9 1016.9 0.0
28/02:30pm 12.9 8.4 6.0 63 3.3 SSW 19 24 10 13 1016.7 1016.7 0.0
28/02:00pm 13.6 8.5 6.0 60 3.6 S 22 28 12 15 1016.5 1016.5 0.0
28/01:30pm 13.9 9.3 6.5 61 3.6 S 20 28 11 15 1016.3 1016.3 0.0
28/01:00pm 13.8 8.1 6.7 62 3.4 S 26 32 14 17 1016.3 1016.3 0.0
28/12:30pm 13.6 7.9 6.7 63 3.3 S 26 32 14 17 1016.2 1016.2 0.0
28/12:00pm 13.5 10.9 7.7 68 2.8 SSE 11 15 6 8 1016.5 1016.5 0.0
28/11:30am 13.3 10.8 8.0 70 2.6 SSE 11 19 6 10 1016.7 1016.7 0.0
28/11:00am 13.7 10.5 7.0 64 3.3 S 13 19 7 10 1016.7 1016.7 0.0
28/10:30am 14.1 9.0 6.0 58 3.9 S 22 26 12 14 1016.5 1016.5 0.0
28/10:00am 13.0 10.8 7.9 71 2.5 SSE 9 15 5 8 1016.4 1016.4 0.0
28/09:30am 11.6 9.4 7.9 78 1.8 SSE 9 13 5 7 1016.1 1016.1 0.0
28/09:00am 11.1 9.5 8.0 81 1.5 SSE 6 9 3 5 1015.7 1015.7 12.0
28/08:30am 10.7 7.3 7.8 82 1.4 SSE 15 20 8 11 1015.4 1015.4 12.0
28/08:00am 10.1 7.3 7.0 81 1.5 SE 11 15 6 8 1014.9 1014.9 12.0
28/07:30am 9.9 7.5 7.0 82 1.4 SE 9 15 5 8 1014.7 1014.7 12.0
28/07:00am 9.5 7.1 6.9 84 1.2 SSE 9 11 5 6 1014.4 1014.4 12.0
28/06:30am 8.9 6.4 6.5 85 1.1 SSE 9 13 5 7 1013.8 1013.8 12.0
28/06:00am 8.9 5.2 6.5 85 1.1 SSE 15 17 8 9 1013.1 1013.1 12.0
28/05:30am 8.5 4.8 6.3 86 1.0 SSE 15 17 8 9 1012.5 1012.5 12.0
28/05:00am 8.4 5.1 6.2 86 1.0 SSE 13 15 7 8 1012.0 1012.0 11.8
28/04:30am 8.7 5.4 6.3 85 1.1 SSE 13 17 7 9 1011.7 1011.7 11.8
28/04:00am 8.6 5.7 6.4 86 1.0 SSE 11 13 6 7 1011.4 1011.4 11.8
28/03:30am 8.9 5.7 6.7 86 1.0 SSE 13 17 7 9 1011.1 1011.1 11.8
28/03:00am 9.3 5.5 7.4 88 0.9 S 17 20 9 11 1011.0 1011.0 11.8
28/02:30am 8.7 4.8 7.2 90 0.7 SSE 17 20 9 11 1010.5 1010.5 11.8
28/02:00am 8.3 4.4 7.1 92 0.6 SSE 17 20 9 11 1010.0 1010.0 11.8
28/01:30am 8.4 4.9 7.3 93 0.5 SSE 15 20 8 11 1009.6 1009.6 11.8
28/01:00am 8.5 5.8 7.4 93 0.5 SE 11 15 6 8 1009.1 1009.1 11.8
28/12:30am 8.8 5.4 7.6 92 0.6 SE 15 26 8 14 1008.8 1008.8 11.8
28/12:00am 8.5 5.7 7.1 91 0.7 SE 11 15 6 8 1008.2 1008.2 11.8
 
Date/Time
CST
Temp
°C
App
Temp
°C
Dew
Point
Rel
Hum
%
Delta-T
°C
Wind Press
QNH
hPa
Press
MSL
hPa
Rain
since 9 am
mm
Dir
 
Spd
km/h
Gust
km/h
Spd
kts
Gust
kts
27/11:30pm 9.4 7.6 8.0 91 0.7 ESE 7 9 4 5 1007.6 1007.5 11.8
27/11:00pm 8.7 6.4 7.3 91 0.7 E 9 9 5 5 1007.0 1006.9 11.8
27/10:30pm 8.6 6.2 7.1 90 0.7 E 9 9 5 5 1006.7 1006.6 11.8
27/10:00pm 9.0 6.6 7.1 88 0.9 E 9 9 5 5 1006.3 1006.2 11.8
27/09:30pm 10.0 8.6 7.4 84 1.2 SSE 4 6 2 3 1006.2 1006.1 11.8
27/09:00pm 11.5 10.0 8.4 81 1.5 W 6 9 3 5 1005.9 1005.8 11.8
27/08:30pm 11.6 9.9 8.5 81 1.5 W 7 11 4 6 1005.8 1005.7 11.8
27/08:00pm 11.7 9.2 8.2 79 1.7 WSW 11 15 6 8 1005.5 1005.4 11.8
27/07:30pm 11.6 10.0 8.8 83 1.4 WNW 7 15 4 8 1005.4 1005.3 11.8
27/07:00pm 11.4 9.0 8.8 84 1.3 NW 11 17 6 9 1005.1 1005.0 11.8
27/06:30pm 11.4 8.2 8.6 83 1.4 NW 15 19 8 10 1004.8 1004.7 11.8
27/06:00pm 11.3 8.3 7.8 79 1.7 WNW 13 19 7 10 1004.6 1004.5 11.8
27/05:30pm 11.5 8.8 9.1 85 1.2 WNW 13 17 7 9 1004.2 1004.2 11.8
27/05:00pm 11.4 8.7 8.8 84 1.3 NW 13 17 7 9 1004.0 1004.0 11.8
27/04:30pm 11.3 8.7 9.4 88 1.0 NNW 13 17 7 9 1004.0 1004.0 11.8
27/04:00pm 11.2 7.4 9.1 87 1.0 NW 19 24 10 13 1003.7 1003.7 10.2
27/03:30pm 11.4 7.0 8.8 84 1.3 WNW 22 32 12 17 1003.7 1003.7 9.2
27/03:00pm 13.4 8.6 8.7 73 2.4 WSW 24 33 13 18 1003.3 1003.3 8.8
27/02:30pm 13.4 8.3 9.1 75 2.2 W 26 35 14 19 1002.9 1002.9 8.8
27/02:00pm 14.3 10.1 8.3 67 3.0 W 20 26 11 14 1002.9 1002.9 8.8
27/01:30pm 14.1 9.2 8.3 68 2.9 W 24 30 13 16 1003.0 1003.0 8.8
27/01:00pm 14.8 9.2 8.7 67 3.1 W 28 35 15 19 1003.4 1003.4 8.8
27/12:30pm 14.9 10.7 9.9 72 2.6 W 22 30 12 16 1003.4 1003.4 8.8
27/12:00pm 14.6 10.5 10.0 74 2.4 W 22 28 12 15 1003.4 1003.4 8.8
27/11:30am 13.3 10.3 10.8 85 1.3 W 17 24 9 13 1003.8 1003.8 8.8
27/11:00am 12.0 9.4 10.6 91 0.7 NNE 15 30 8 16 1004.2 1004.2 8.0
27/10:30am 11.3 8.9 10.0 92 0.7 NE 13 17 7 9 1004.6 1004.5 7.6
27/10:00am 10.7 8.9 9.5 92 0.6 NNE 9 15 5 8 1005.0 1004.9 7.6
27/09:30am 10.5 7.2 9.4 93 0.6 NE 17 28 9 15 1005.7 1005.6 3.2
27/09:00am 10.9 5.9 9.7 92 0.6 NE 26 35 14 19 1005.2 1005.1 3.4
27/08:30am 11.6 7.2 10.3 92 0.7 NNE 24 32 13 17 1005.6 1005.5 2.6
27/08:00am 11.3 6.0 9.7 90 0.8 NNE 28 39 15 21 1005.9 1005.8 2.6
27/07:43am 11.8 6.7 10.5 92 0.7 NNE 28 43 15 23 1006.0 1005.9 2.2
27/07:30am 11.1 7.9 9.9 92 0.6 NE 17 22 9 12 1006.4 1006.3 0.8
27/07:00am 10.1 6.7 9.0 93 0.5 ENE 17 20 9 11 1006.3 1006.2 0.0
27/06:30am 9.3 5.3 8.2 93 0.5 ENE 19 22 10 12 1006.4 1006.3 0.0
27/06:00am 8.4 5.3 7.2 92 0.6 E 13 17 7 9 1006.8 1006.7 0.0
27/05:30am 8.1 4.9 6.9 92 0.6 ENE 13 15 7 8 1007.2 1007.1 0.0
27/05:00am 7.2 3.8 5.8 91 0.6 E 13 15 7 8 1007.4 1007.3 0.0
27/04:30am 6.9 3.8 5.5 91 0.6 E 11 13 6 7 1007.7 1007.7 0.0
27/04:00am 6.9 3.8 5.4 90 0.7 E 11 13 6 7 1007.8 1007.8 0.0
27/03:30am 7.0 4.3 5.5 90 0.7 ENE 9 11 5 6 1008.0 1008.0 0.0
27/03:00am 7.1 4.4 5.4 89 0.8 ENE 9 9 5 5 1008.3 1008.3 0.0
27/02:30am 7.8 6.9 6.1 89 0.8 CALM 0 4 0 2 1008.6 1008.6 0.0
27/02:00am 8.4 7.5 6.2 86 1.0 CALM 0 0 0 0 1008.8 1008.8 0.0
27/01:30am 8.9 8.1 6.5 85 1.1 CALM 0 0 0 0 1008.9 1008.9 0.0
27/01:00am 9.3 8.5 6.6 83 1.3 CALM 0 4 0 2 1009.1 1009.1 0.0
27/12:30am 10.0 9.2 6.7 80 1.6 CALM 0 0 0 0 1009.4 1009.4 0.0
27/12:00am 10.1 9.3 6.4 78 1.7 CALM 0 2 0 1 1009.6 1009.6 0.0
 
Date/Time
CST
Temp
°C
App
Temp
°C
Dew
Point
Rel
Hum
%
Delta-T
°C
Wind Press
QNH
hPa
Press
MSL
hPa
Rain
since 9 am
mm
Dir
 
Spd
km/h
Gust
km/h
Spd
kts
Gust
kts
26/11:30pm 11.0 9.0 6.9 76 1.9 WSW 7 9 4 5 1009.6 1009.6 0.0
26/11:00pm 11.3 8.9 7.2 76 2.0 SW 9 13 5 7 1009.7 1009.7 0.0
26/10:30pm 11.5 9.2 7.4 76 2.0 SW 9 11 5 6 1009.8 1009.8 0.0
26/10:00pm 11.8 9.2 7.7 76 2.0 SW 11 13 6 7 1010.2 1010.2 0.0
26/09:30pm 11.2 8.6 7.9 80 1.6 SW 11 15 6 8 1010.2 1010.2 0.0
26/09:00pm 12.2 9.3 8.1 76 2.0 SW 13 17 7 9 1010.4 1010.4 0.0
26/08:30pm 12.3 8.8 7.4 72 2.4 SW 15 22 8 12 1010.2 1010.2 0.0
26/08:00pm 12.6 8.7 7.1 69 2.7 SW 17 22 9 12 1010.0 1010.0 0.0
26/07:30pm 12.8 9.0 7.5 70 2.6 SW 17 20 9 11 1009.8 1009.8 0.0
26/07:00pm 13.0 9.2 7.5 69 2.7 SW 17 24 9 13 1009.6 1009.6 0.0
26/06:30pm 12.5 8.7 7.6 72 2.4 WSW 17 24 9 13 1009.4 1009.4 0.0
26/06:00pm 12.7 9.0 7.8 72 2.4 WSW 17 22 9 12 1009.2 1009.2 0.0
26/05:30pm 12.5 8.3 7.6 72 2.4 WSW 19 22 10 12 1008.9 1008.9 0.0
26/05:00pm 12.9 8.7 8.4 74 2.2 WSW 20 26 11 14 1008.5 1008.5 0.0
26/04:30pm 13.4 9.9 8.7 73 2.4 SW 17 22 9 12 1008.4 1008.4 0.0
26/04:00pm 13.9 9.2 7.9 67 3.0 WSW 22 30 12 16 1008.0 1008.0 0.0
26/03:30pm 14.7 9.1 7.3 61 3.7 WSW 26 32 14 17 1007.8 1007.8 0.0
26/03:00pm 15.1 10.1 8.1 63 3.5 WSW 24 32 13 17 1007.9 1007.9 0.0
26/02:30pm 15.3 10.3 8.1 62 3.6 WSW 24 33 13 18 1007.6 1007.5 0.0
26/02:00pm 15.0 10.3 7.8 62 3.6 WSW 22 28 12 15 1007.6 1007.5 0.0
26/01:30pm 15.2 10.2 8.0 62 3.6 WSW 24 28 13 15 1007.6 1007.5 0.0
26/01:00pm 15.2 10.7 8.4 64 3.4 WSW 22 28 12 15 1007.7 1007.7 0.0
26/12:30pm 15.3 10.7 8.3 63 3.5 SW 22 28 12 15 1007.7 1007.7 0.0
26/12:00pm 15.3 11.3 9.2 67 3.1 WSW 20 26 11 14 1007.8 1007.8 0.0

Other Formats:

Comma delimited format used in spreadsheet applications
http://www.bom.gov.au/fwo/IDS60801/IDS60801.94813.axf

JavaScript Object Notation format (JSON) in row-major order
http://www.bom.gov.au/fwo/IDS60801/IDS60801.94813.json